This is the latest recevied weather packets stored in our database for station/object N1YZ. If no packets are shown the sender has not sent any weather packets the latest 10 day(s).
| Time | Temp. | Humidity | Pressure | Rain* | Wind** | Luminosity | Snow |
|---|---|---|---|---|---|---|---|
| 1777849533 | 19.44° C | 46% | 1037.1 hPa | 0 mm | - | 17 W/m² | - |
| 1777849230 | 19.44° C | 45% | 1037.1 hPa | 0 mm | - | 18 W/m² | - |
| 1777848927 | 20° C | 46% | 1037.1 hPa | 0 mm | - | 19 W/m² | - |
| 1777848621 | 20° C | 46% | 1037.2 hPa | 0 mm | - | 20 W/m² | - |
| 1777848320 | 20° C | 47% | 1037.3 hPa | 0 mm | - | 21 W/m² | - |
| 1777848017 | 20° C | 46% | 1037.1 hPa | 0 mm | - | 21 W/m² | - |
| 1777847715 | 20° C | 45% | 1037 hPa | 0 mm | - | 24 W/m² | - |
| 1777847410 | 20.56° C | 46% | 1036.9 hPa | 0 mm | - | 24 W/m² | - |
| 1777847109 | 20.56° C | 43% | 1037.1 hPa | 0 mm | - | 26 W/m² | - |
| 1777846806 | 21.11° C | 43% | 1037 hPa | 0 mm | - | 27 W/m² | - |
| 1777846504 | 21.67° C | 40% | 1037.2 hPa | 0 mm | - | 30 W/m² | - |
| 1777846201 | 21.67° C | 40% | 1037.2 hPa | 0 mm | - | 33 W/m² | - |
| 1777845897 | 22.78° C | 36% | 1037.3 hPa | 0 mm | - | 45 W/m² | - |
| 1777845589 | 23.89° C | 35% | 1037.2 hPa | 0 mm | - | 43 W/m² | - |
| 1777845286 | 23.33° C | 40% | 1037.4 hPa | 0 mm | - | 302 W/m² | - |
| 1777844983 | 21.67° C | 40% | 1037.4 hPa | 0 mm | - | 317 W/m² | - |
| 1777844681 | 22.22° C | 39% | 1037.6 hPa | 0 mm | - | 95 W/m² | - |
| 1777844377 | 21.67° C | 42% | 1037.6 hPa | 0 mm | - | 154 W/m² | - |
| 1777844077 | 21.67° C | 40% | 1037.5 hPa | 0 mm | - | 45 W/m² | - |
| 1777843772 | 22.22° C | 39% | 1037.4 hPa | 0 mm | - | 69 W/m² | - |
| 1777843470 | 22.22° C | 38% | 1037.4 hPa | 0 mm | - | 127 W/m² | - |
| 1777843167 | 22.22° C | 44% | 1037.6 hPa | 0 mm | - | 364 W/m² | - |
| 1777842864 | 22.22° C | 38% | 1037.8 hPa | 0 mm | - | 93 W/m² | - |
| 1777842559 | 21.67° C | 39% | 1037.7 hPa | 0 mm | - | 98 W/m² | - |
| 1777842256 | 21.11° C | 40% | 1037.9 hPa | 0 mm | - | 128 W/m² | - |
* Rain latest hour (hover to see other rain measurements)
** Current wind speed in m/s (hover to see current wind gust speed)